Anastasia — SVA6070 — position and weather

sailwx.info

Track history (hours):
 
Tides and Currents Weather Stations Pressure Air Temp Water Temp Dewpoint Dewpoint Depression Visibility Wind Speed Wind Dir Waves Ship Positions

Anastasia

Last reported at 2017-Oct-17 23:16 UTC. Time now 2017-Oct-20 18:22 UTC.
Position N 39°40' E 023°54'.

Length 82 m; draft 3.9 m.

Type: Cargo ship. MMSI: 239855900.

Date/timePositionNaut miles runAvg speedWind from/ knotsBaromVisibWave heightAir tempDewpointWater temp
2017-Oct-17 23:16N 39°40' E 023°54'3 7.1
2017-Oct-17 22:53N 39°42' E 023°56'7 7.3
2017-Oct-17 22:00N 39°47' E 024°01'4 7.5
2017-Oct-17 21:31N 39°50' E 024°05'4 7.5
2017-Oct-17 21:00N 39°52' E 024°08'4 7.4
2017-Oct-17 20:30N 39°55' E 024°11'4 7.4
2017-Oct-17 20:00N 39°58' E 024°15'4 7.3
2017-Oct-17 19:30N 40°01' E 024°18'5 7.4
2017-Oct-17 18:48N 40°05' E 024°22'4 7.3
2017-Oct-17 18:17N 40°08' E 024°25'2 8.1
2017-Oct-17 17:59N 40°10' E 024°26'4 7.9
2017-Oct-17 17:29N 40°14' E 024°26'4 7.7
2017-Oct-17 16:59N 40°18' E 024°26'4 7.7
2017-Oct-17 16:30N 40°21' E 024°27'4 7.8
2017-Oct-17 16:01N 40°25' E 024°27'4 8.0
2017-Oct-17 15:31N 40°29' E 024°28'4 7.7
2017-Oct-17 15:01N 40°33' E 024°28'4 7.6
2017-Oct-17 14:31N 40°37' E 024°28'4 8.0
2017-Oct-17 14:01N 40°41' E 024°28'4 7.7
2017-Oct-17 13:31N 40°45' E 024°29'4 7.5
2017-Oct-17 13:01N 40°49' E 024°29'4 7.3
2017-Oct-17 12:30N 40°52' E 024°29'4 7.4
2017-Oct-17 12:01N 40°56' E 024°29'1 1.9
2017-Oct-17 11:31N 40°57' E 024°28'0 0.0
2017-Oct-17 11:01N 40°57' E 024°28'0 0.0
2017-Oct-17 10:30N 40°57' E 024°28'0 0.0
2017-Oct-17 10:01N 40°57' E 024°28'0 0.0
2017-Oct-17 09:31N 40°57' E 024°28'0 0.0
2017-Oct-17 09:00N 40°57' E 024°28'0 0.0
2017-Oct-17 08:31N 40°57' E 024°28'0 0.0
2017-Oct-17 08:01N 40°57' E 024°28'0 0.0
2017-Oct-17 07:31N 40°57' E 024°28'0 0.0
2017-Oct-17 07:00N 40°57' E 024°28'0 0.0
2017-Oct-17 06:31N 40°57' E 024°28'0 0.0
2017-Oct-17 05:40N 40°57' E 024°28'0 0.0
2017-Oct-17 05:30N 40°57' E 024°28'0 0.0
2017-Oct-17 05:01N 40°57' E 024°28'0 0.0
2017-Oct-17 04:30N 40°57' E 024°28'0 0.0
2017-Oct-17 04:00N 40°57' E 024°28'0 0.0
2017-Oct-17 03:30N 40°57' E 024°28'0 0.0
2017-Oct-17 03:00N 40°57' E 024°28'0 0.0
2017-Oct-17 02:30N 40°57' E 024°28'0 0.0
2017-Oct-17 02:00N 40°57' E 024°28'0 0.0
2017-Oct-17 01:30N 40°57' E 024°28'0 0.0
2017-Oct-17 01:00N 40°57' E 024°28'0 0.0
2017-Oct-17 00:30N 40°57' E 024°28'0 0.0
2017-Oct-17 00:00N 40°57' E 024°28'0 0.0
2017-Oct-16 23:31N 40°57' E 024°28'0 0.0
2017-Oct-16 23:00N 40°57' E 024°28'0 0.0
2017-Oct-16 22:30N 40°57' E 024°28'0 0.0
2017-Oct-16 22:00N 40°57' E 024°28'0 0.0
2017-Oct-16 21:30N 40°57' E 024°28'0 0.0
2017-Oct-16 21:00N 40°57' E 024°28'0 0.0
2017-Oct-16 20:30N 40°57' E 024°28'0 0.0
2017-Oct-16 20:00N 40°57' E 024°28'0 0.0
2017-Oct-16 19:30N 40°57' E 024°28'0 0.0
2017-Oct-16 19:00N 40°57' E 024°28'0 0.0
2017-Oct-16 18:30N 40°57' E 024°28'0 0.0
2017-Oct-16 18:00N 40°57' E 024°28'0 0.0
2017-Oct-16 17:29N 40°57' E 024°28'0 0.0
2017-Oct-16 17:00N 40°57' E 024°28'0 0.0
2017-Oct-16 16:30N 40°57' E 024°28'0 0.0
2017-Oct-16 16:00N 40°57' E 024°28'0 0.0
2017-Oct-16 15:30N 40°57' E 024°28'0 0.0
2017-Oct-16 15:00N 40°57' E 024°28'0 0.0
2017-Oct-16 14:30N 40°57' E 024°28'0 0.0
2017-Oct-16 13:30N 40°57' E 024°28'0 0.0
2017-Oct-16 13:00N 40°57' E 024°28'0 0.0
2017-Oct-16 12:30N 40°57' E 024°28'0 0.0
2017-Oct-16 12:00N 40°57' E 024°28'0 0.0
2017-Oct-16 11:31N 40°57' E 024°28'0 0.0
2017-Oct-16 11:00N 40°57' E 024°28'0 0.0
2017-Oct-16 10:30N 40°57' E 024°28'0 0.0
2017-Oct-16 10:00N 40°57' E 024°28'0 0.0
2017-Oct-16 09:30N 40°57' E 024°28'0 0.0
2017-Oct-16 09:00N 40°57' E 024°28'0 0.0
2017-Oct-16 08:30N 40°57' E 024°28'0 0.0
2017-Oct-16 08:00N 40°57' E 024°28'1 2.4
2017-Oct-16 07:30N 40°56' E 024°29'4 8.1
2017-Oct-16 07:00N 40°52' E 024°29'4 8.3
2017-Oct-16 06:30N 40°47' E 024°28'4 8.1
2017-Oct-16 06:00N 40°43' E 024°28'4 7.9
2017-Oct-16 05:30N 40°39' E 024°27'4 7.8
2017-Oct-16 05:00N 40°35' E 024°27'4 8.1
2017-Oct-16 04:30N 40°32' E 024°27'4 8.3
2017-Oct-16 04:00N 40°27' E 024°27'4 8.2
2017-Oct-16 03:31N 40°23' E 024°28'4 8.2
2017-Oct-16 03:00N 40°19' E 024°28'4 8.1
2017-Oct-16 02:30N 40°15' E 024°27'4 7.8
2017-Oct-16 02:00N 40°11' E 024°27'4 7.4
2017-Oct-16 01:31N 40°07' E 024°27'4 7.2
2017-Oct-16 01:00N 40°04' E 024°27'4 7.3
2017-Oct-16 00:30N 40°00' E 024°27'14 7.4
2017-Oct-15 22:37N 39°46' E 024°26'3 7.8
2017-Oct-15 22:18N 39°44' E 024°26'14 8.0
2017-Oct-15 20:35N 39°30' E 024°26'113 6.2
2017-Oct-15 02:25N 37°38' E 024°46'3 6.9
2017-Oct-15 02:00N 37°35' E 024°47'4 7.0
2017-Oct-15 01:30N 37°32' E 024°46'4 7.1
2017-Oct-15 01:01N 37°28' E 024°45'117 7.1
2017-Oct-14 08:39N 35°32' E 024°30'1 7.6
2017-Oct-14 08:30N 35°31' E 024°30'4 7.8
2017-Oct-14 08:01N 35°27' E 024°30'4 8.0
2017-Oct-14 07:30N 35°23' E 024°29'1 1.8
2017-Oct-14 07:01N 35°22' E 024°29'0 0.0
2017-Oct-14 06:31N 35°22' E 024°29'0 0.0
2017-Oct-14 06:00N 35°22' E 024°29'0 0.0
2017-Oct-14 05:30N 35°22' E 024°29'0 0.0
2017-Oct-14 05:00N 35°22' E 024°29'0 0.0
2017-Oct-14 04:30N 35°22' E 024°29'0 0.0
2017-Oct-14 04:00N 35°22' E 024°29'0 0.0
2017-Oct-14 03:30N 35°22' E 024°29'0 0.0
2017-Oct-14 03:00N 35°22' E 024°29'0 0.0
2017-Oct-14 02:30N 35°22' E 024°29'0 0.0
2017-Oct-14 02:00N 35°22' E 024°29'0 0.0
2017-Oct-14 01:30N 35°22' E 024°29'0 0.0
2017-Oct-14 01:00N 35°22' E 024°29'0 0.0
2017-Oct-14 00:30N 35°22' E 024°29'0 0.0
2017-Oct-14 00:00N 35°22' E 024°29'0 0.0
2017-Oct-13 23:31N 35°22' E 024°29'0 0.0
2017-Oct-13 23:00N 35°22' E 024°29'0 0.0
2017-Oct-13 22:30N 35°22' E 024°29'0 0.0
2017-Oct-13 22:00N 35°22' E 024°29'0 0.0
2017-Oct-13 21:30N 35°22' E 024°29'0 0.0
2017-Oct-13 21:00N 35°22' E 024°29'0 0.0
2017-Oct-13 20:30N 35°22' E 024°29'0 0.0
2017-Oct-13 20:00N 35°22' E 024°29'0 0.0
2017-Oct-13 19:30N 35°22' E 024°29'0 0.0
2017-Oct-13 19:00N 35°22' E 024°29'0 0.0
2017-Oct-13 18:30N 35°22' E 024°29'0 0.0
2017-Oct-13 18:00N 35°22' E 024°29'0 0.0
2017-Oct-13 17:30N 35°22' E 024°29'0 0.0
2017-Oct-13 17:00N 35°22' E 024°29'0 0.0
2017-Oct-13 16:30N 35°22' E 024°29'0 0.0
2017-Oct-13 16:00N 35°22' E 024°29'0 0.0
2017-Oct-13 15:30N 35°22' E 024°29'0 0.0
2017-Oct-13 15:00N 35°22' E 024°29'0 0.0
2017-Oct-13 14:30N 35°22' E 024°29'0 0.0
2017-Oct-13 14:00N 35°22' E 024°29'0 0.0
2017-Oct-13 13:30N 35°22' E 024°29'0 0.0
2017-Oct-13 13:00N 35°22' E 024°29'0 0.0
2017-Oct-13 12:30N 35°22' E 024°29'0 0.0
2017-Oct-13 12:00N 35°22' E 024°29'0 0.0
2017-Oct-13 11:30N 35°22' E 024°29'0 0.0
2017-Oct-13 11:00N 35°22' E 024°29'0 0.0
2017-Oct-13 10:30N 35°22' E 024°29'0 0.0
2017-Oct-13 10:00N 35°22' E 024°29'0 0.0
2017-Oct-13 09:30N 35°22' E 024°29'0 0.0
2017-Oct-13 09:00N 35°22' E 024°29'0 0.0
2017-Oct-13 08:30N 35°22' E 024°29'0 0.0
2017-Oct-13 08:00N 35°22' E 024°29'0 0.0
2017-Oct-13 07:30N 35°22' E 024°29'0 0.0
2017-Oct-13 07:00N 35°22' E 024°29'0 0.0
2017-Oct-13 06:30N 35°22' E 024°29'0 0.0
2017-Oct-13 06:00N 35°22' E 024°29'0 0.0
2017-Oct-13 05:30N 35°22' E 024°29'0 0.0
2017-Oct-13 05:00N 35°22' E 024°29'0 0.0
2017-Oct-13 04:30N 35°22' E 024°29'0 0.0
2017-Oct-13 04:00N 35°22' E 024°29'0 0.0
2017-Oct-13 03:30N 35°22' E 024°29'0 0.0
2017-Oct-13 03:00N 35°22' E 024°29'0 0.0
2017-Oct-13 02:30N 35°22' E 024°29'0 0.0
2017-Oct-13 02:00N 35°22' E 024°29'0 0.0
2017-Oct-13 01:30N 35°22' E 024°29'0 0.0
2017-Oct-13 01:00N 35°22' E 024°29'0 0.0
2017-Oct-13 00:30N 35°22' E 024°29'0 0.0
2017-Oct-13 00:00N 35°22' E 024°29'1 2.5
2017-Oct-12 23:30N 35°23' E 024°30'180 3.7
2017-Oct-10 23:23N 38°20' E 023°50'  
2017-Oct-08 03:23N 39°58' E 024°06'3 8.0
2017-Oct-08 03:00N 39°60' E 024°09'5 7.8
2017-Oct-08 02:26N 40°02' E 024°14'3 7.6
2017-Oct-08 02:00N 40°04' E 024°18'10 8.0
2017-Oct-08 00:45N 40°10' E 024°29'2 8.0
2017-Oct-08 00:30N 40°11' E 024°31'4 8.0
2017-Oct-07 23:58N 40°14' E 024°35'4 8.0
2017-Oct-07 23:30N 40°16' E 024°38'  
Track history (hours):
 
Tides and Currents Weather Stations Pressure Air Temp Water Temp Dewpoint Dewpoint Depression Visibility Wind Speed Wind Dir Waves Ship Positions

Anastasia

Last reported at 2017-Oct-17 23:16 UTC. Time now 2017-Oct-20 18:22 UTC.
Position N 39°40' E 023°54'.

Length 82 m; draft 3.9 m.

Type: Cargo ship. MMSI: 239855900.

Date/timePositionNaut miles runAvg speedWind from/ knotsBaromVisibWave heightAir tempDewpointWater temp
2017-Oct-17 23:16N 39°40' E 023°54'3 7.1
2017-Oct-17 22:53N 39°42' E 023°56'7 7.3
2017-Oct-17 22:00N 39°47' E 024°01'4 7.5
2017-Oct-17 21:31N 39°50' E 024°05'4 7.5
2017-Oct-17 21:00N 39°52' E 024°08'4 7.4
2017-Oct-17 20:30N 39°55' E 024°11'4 7.4
2017-Oct-17 20:00N 39°58' E 024°15'4 7.3
2017-Oct-17 19:30N 40°01' E 024°18'5 7.4
2017-Oct-17 18:48N 40°05' E 024°22'4 7.3
2017-Oct-17 18:17N 40°08' E 024°25'2 8.1
2017-Oct-17 17:59N 40°10' E 024°26'4 7.9
2017-Oct-17 17:29N 40°14' E 024°26'4 7.7
2017-Oct-17 16:59N 40°18' E 024°26'4 7.7
2017-Oct-17 16:30N 40°21' E 024°27'4 7.8
2017-Oct-17 16:01N 40°25' E 024°27'4 8.0
2017-Oct-17 15:31N 40°29' E 024°28'4 7.7
2017-Oct-17 15:01N 40°33' E 024°28'4 7.6
2017-Oct-17 14:31N 40°37' E 024°28'4 8.0
2017-Oct-17 14:01N 40°41' E 024°28'4 7.7
2017-Oct-17 13:31N 40°45' E 024°29'4 7.5
2017-Oct-17 13:01N 40°49' E 024°29'4 7.3
2017-Oct-17 12:30N 40°52' E 024°29'4 7.4
2017-Oct-17 12:01N 40°56' E 024°29'1 1.9
2017-Oct-17 11:31N 40°57' E 024°28'0 0.0
2017-Oct-17 11:01N 40°57' E 024°28'0 0.0
2017-Oct-17 10:30N 40°57' E 024°28'0 0.0
2017-Oct-17 10:01N 40°57' E 024°28'0 0.0
2017-Oct-17 09:31N 40°57' E 024°28'0 0.0
2017-Oct-17 09:00N 40°57' E 024°28'0 0.0
2017-Oct-17 08:31N 40°57' E 024°28'0 0.0
2017-Oct-17 08:01N 40°57' E 024°28'0 0.0
2017-Oct-17 07:31N 40°57' E 024°28'0 0.0
2017-Oct-17 07:00N 40°57' E 024°28'0 0.0
2017-Oct-17 06:31N 40°57' E 024°28'0 0.0
2017-Oct-17 05:40N 40°57' E 024°28'0 0.0
2017-Oct-17 05:30N 40°57' E 024°28'0 0.0
2017-Oct-17 05:01N 40°57' E 024°28'0 0.0
2017-Oct-17 04:30N 40°57' E 024°28'0 0.0
2017-Oct-17 04:00N 40°57' E 024°28'0 0.0
2017-Oct-17 03:30N 40°57' E 024°28'0 0.0
2017-Oct-17 03:00N 40°57' E 024°28'0 0.0
2017-Oct-17 02:30N 40°57' E 024°28'0 0.0
2017-Oct-17 02:00N 40°57' E 024°28'0 0.0
2017-Oct-17 01:30N 40°57' E 024°28'0 0.0
2017-Oct-17 01:00N 40°57' E 024°28'0 0.0
2017-Oct-17 00:30N 40°57' E 024°28'0 0.0
2017-Oct-17 00:00N 40°57' E 024°28'0 0.0
2017-Oct-16 23:31N 40°57' E 024°28'0 0.0
2017-Oct-16 23:00N 40°57' E 024°28'0 0.0
2017-Oct-16 22:30N 40°57' E 024°28'0 0.0
2017-Oct-16 22:00N 40°57' E 024°28'0 0.0
2017-Oct-16 21:30N 40°57' E 024°28'0 0.0
2017-Oct-16 21:00N 40°57' E 024°28'0 0.0
2017-Oct-16 20:30N 40°57' E 024°28'0 0.0
2017-Oct-16 20:00N 40°57' E 024°28'0 0.0
2017-Oct-16 19:30N 40°57' E 024°28'0 0.0
2017-Oct-16 19:00N 40°57' E 024°28'0 0.0
2017-Oct-16 18:30N 40°57' E 024°28'0 0.0
2017-Oct-16 18:00N 40°57' E 024°28'0 0.0
2017-Oct-16 17:29N 40°57' E 024°28'0 0.0
2017-Oct-16 17:00N 40°57' E 024°28'0 0.0
2017-Oct-16 16:30N 40°57' E 024°28'0 0.0
2017-Oct-16 16:00N 40°57' E 024°28'0 0.0
2017-Oct-16 15:30N 40°57' E 024°28'0 0.0
2017-Oct-16 15:00N 40°57' E 024°28'0 0.0
2017-Oct-16 14:30N 40°57' E 024°28'0 0.0
2017-Oct-16 13:30N 40°57' E 024°28'0 0.0
2017-Oct-16 13:00N 40°57' E 024°28'0 0.0
2017-Oct-16 12:30N 40°57' E 024°28'0 0.0
2017-Oct-16 12:00N 40°57' E 024°28'0 0.0
2017-Oct-16 11:31N 40°57' E 024°28'0 0.0
2017-Oct-16 11:00N 40°57' E 024°28'0 0.0
2017-Oct-16 10:30N 40°57' E 024°28'0 0.0
2017-Oct-16 10:00N 40°57' E 024°28'0 0.0
2017-Oct-16 09:30N 40°57' E 024°28'0 0.0
2017-Oct-16 09:00N 40°57' E 024°28'0 0.0
2017-Oct-16 08:30N 40°57' E 024°28'0 0.0
2017-Oct-16 08:00N 40°57' E 024°28'1 2.4
2017-Oct-16 07:30N 40°56' E 024°29'4 8.1
2017-Oct-16 07:00N 40°52' E 024°29'4 8.3
2017-Oct-16 06:30N 40°47' E 024°28'4 8.1
2017-Oct-16 06:00N 40°43' E 024°28'4 7.9
2017-Oct-16 05:30N 40°39' E 024°27'4 7.8
2017-Oct-16 05:00N 40°35' E 024°27'4 8.1
2017-Oct-16 04:30N 40°32' E 024°27'4 8.3
2017-Oct-16 04:00N 40°27' E 024°27'4 8.2
2017-Oct-16 03:31N 40°23' E 024°28'4 8.2
2017-Oct-16 03:00N 40°19' E 024°28'4 8.1
2017-Oct-16 02:30N 40°15' E 024°27'4 7.8
2017-Oct-16 02:00N 40°11' E 024°27'4 7.4
2017-Oct-16 01:31N 40°07' E 024°27'4 7.2
2017-Oct-16 01:00N 40°04' E 024°27'4 7.3
2017-Oct-16 00:30N 40°00' E 024°27'14 7.4
2017-Oct-15 22:37N 39°46' E 024°26'3 7.8
2017-Oct-15 22:18N 39°44' E 024°26'14 8.0
2017-Oct-15 20:35N 39°30' E 024°26'113 6.2
2017-Oct-15 02:25N 37°38' E 024°46'3 6.9
2017-Oct-15 02:00N 37°35' E 024°47'4 7.0
2017-Oct-15 01:30N 37°32' E 024°46'4 7.1
2017-Oct-15 01:01N 37°28' E 024°45'117 7.1
2017-Oct-14 08:39N 35°32' E 024°30'1 7.6
2017-Oct-14 08:30N 35°31' E 024°30'4 7.8
2017-Oct-14 08:01N 35°27' E 024°30'4 8.0
2017-Oct-14 07:30N 35°23' E 024°29'1 1.8
2017-Oct-14 07:01N 35°22' E 024°29'0 0.0
2017-Oct-14 06:31N 35°22' E 024°29'0 0.0
2017-Oct-14 06:00N 35°22' E 024°29'0 0.0
2017-Oct-14 05:30N 35°22' E 024°29'0 0.0
2017-Oct-14 05:00N 35°22' E 024°29'0 0.0
2017-Oct-14 04:30N 35°22' E 024°29'0 0.0
2017-Oct-14 04:00N 35°22' E 024°29'0 0.0
2017-Oct-14 03:30N 35°22' E 024°29'0 0.0
2017-Oct-14 03:00N 35°22' E 024°29'0 0.0
2017-Oct-14 02:30N 35°22' E 024°29'0 0.0
2017-Oct-14 02:00N 35°22' E 024°29'0 0.0
2017-Oct-14 01:30N 35°22' E 024°29'0 0.0
2017-Oct-14 01:00N 35°22' E 024°29'0 0.0
2017-Oct-14 00:30N 35°22' E 024°29'0 0.0
2017-Oct-14 00:00N 35°22' E 024°29'0 0.0
2017-Oct-13 23:31N 35°22' E 024°29'0 0.0
2017-Oct-13 23:00N 35°22' E 024°29'0 0.0
2017-Oct-13 22:30N 35°22' E 024°29'0 0.0
2017-Oct-13 22:00N 35°22' E 024°29'0 0.0
2017-Oct-13 21:30N 35°22' E 024°29'0 0.0
2017-Oct-13 21:00N 35°22' E 024°29'0 0.0
2017-Oct-13 20:30N 35°22' E 024°29'0 0.0
2017-Oct-13 20:00N 35°22' E 024°29'0 0.0
2017-Oct-13 19:30N 35°22' E 024°29'0 0.0
2017-Oct-13 19:00N 35°22' E 024°29'0 0.0
2017-Oct-13 18:30N 35°22' E 024°29'0 0.0
2017-Oct-13 18:00N 35°22' E 024°29'0 0.0
2017-Oct-13 17:30N 35°22' E 024°29'0 0.0
2017-Oct-13 17:00N 35°22' E 024°29'0 0.0
2017-Oct-13 16:30N 35°22' E 024°29'0 0.0
2017-Oct-13 16:00N 35°22' E 024°29'0 0.0
2017-Oct-13 15:30N 35°22' E 024°29'0 0.0
2017-Oct-13 15:00N 35°22' E 024°29'0 0.0
2017-Oct-13 14:30N 35°22' E 024°29'0 0.0
2017-Oct-13 14:00N 35°22' E 024°29'0 0.0
2017-Oct-13 13:30N 35°22' E 024°29'0 0.0
2017-Oct-13 13:00N 35°22' E 024°29'0 0.0
2017-Oct-13 12:30N 35°22' E 024°29'0 0.0
2017-Oct-13 12:00N 35°22' E 024°29'0 0.0
2017-Oct-13 11:30N 35°22' E 024°29'0 0.0
2017-Oct-13 11:00N 35°22' E 024°29'0 0.0
2017-Oct-13 10:30N 35°22' E 024°29'0 0.0
2017-Oct-13 10:00N 35°22' E 024°29'0 0.0
2017-Oct-13 09:30N 35°22' E 024°29'0 0.0
2017-Oct-13 09:00N 35°22' E 024°29'0 0.0
2017-Oct-13 08:30N 35°22' E 024°29'0 0.0
2017-Oct-13 08:00N 35°22' E 024°29'0 0.0
2017-Oct-13 07:30N 35°22' E 024°29'0 0.0
2017-Oct-13 07:00N 35°22' E 024°29'0 0.0
2017-Oct-13 06:30N 35°22' E 024°29'0 0.0
2017-Oct-13 06:00N 35°22' E 024°29'0 0.0
2017-Oct-13 05:30N 35°22' E 024°29'0 0.0
2017-Oct-13 05:00N 35°22' E 024°29'0 0.0
2017-Oct-13 04:30N 35°22' E 024°29'0 0.0
2017-Oct-13 04:00N 35°22' E 024°29'0 0.0
2017-Oct-13 03:30N 35°22' E 024°29'0 0.0
2017-Oct-13 03:00N 35°22' E 024°29'0 0.0
2017-Oct-13 02:30N 35°22' E 024°29'0 0.0
2017-Oct-13 02:00N 35°22' E 024°29'0 0.0
2017-Oct-13 01:30N 35°22' E 024°29'0 0.0
2017-Oct-13 01:00N 35°22' E 024°29'0 0.0
2017-Oct-13 00:30N 35°22' E 024°29'0 0.0
2017-Oct-13 00:00N 35°22' E 024°29'1 2.5
2017-Oct-12 23:30N 35°23' E 024°30'180 3.7
2017-Oct-10 23:23N 38°20' E 023°50'  
2017-Oct-08 03:23N 39°58' E 024°06'3 8.0
2017-Oct-08 03:00N 39°60' E 024°09'5 7.8
2017-Oct-08 02:26N 40°02' E 024°14'3 7.6
2017-Oct-08 02:00N 40°04' E 024°18'10 8.0
2017-Oct-08 00:45N 40°10' E 024°29'2 8.0
2017-Oct-08 00:30N 40°11' E 024°31'4 8.0
2017-Oct-07 23:58N 40°14' E 024°35'4 8.0
2017-Oct-07 23:30N 40°16' E 024°38'  

Dump ship's entire track history